Time;durP1;ratioP1;P1;durP2;ratioP2;P2;SDS_P1;SDS_P2;PMS_P1;PMS_P2;Temp;Humidity;BMP_temperature;BMP_pressure;BME280_temperature;BME280_humidity;BME280_pressure;Samples;Min_cycle;Max_cycle;Signal;HPM_P1;HPM_P2
2023/08/23 00:00:33;;;;;;;6.00;3.92;;;25.00;99.90;;;;;;4984190;28;20047;-78
2023/08/23 00:02:59;;;;;;;7.30;3.70;;;24.90;99.90;;;;;;4991417;28;20042;-78
2023/08/23 00:05:26;;;;;;;5.47;3.50;;;24.90;99.90;;;;;;4984488;28;20511;-77
2023/08/23 00:07:53;;;;;;;5.50;3.72;;;24.80;99.90;;;;;;4985735;28;20082;-78
2023/08/23 00:10:20;;;;;;;5.78;3.78;;;24.80;99.90;;;;;;4990678;28;20074;-78
2023/08/23 00:12:49;;;;;;;8.43;3.97;;;24.80;99.90;;;;;;4986376;28;20054;-79
2023/08/23 00:15:16;;;;;;;5.50;3.70;;;24.70;99.90;;;;;;4981843;28;20051;-78
2023/08/23 00:17:43;;;;;;;5.35;3.30;;;24.70;99.90;;;;;;4981078;28;20544;-78
2023/08/23 00:20:10;;;;;;;9.55;3.70;;;24.60;99.90;;;;;;4994436;28;20146;-78
2023/08/23 00:22:37;;;;;;;6.07;3.75;;;24.60;99.90;;;;;;4988913;28;20053;-78
2023/08/23 00:25:04;;;;;;;5.40;3.22;;;24.60;99.90;;;;;;4994382;28;20104;-79
2023/08/23 00:27:31;;;;;;;5.25;3.80;;;24.70;99.90;;;;;;4987680;28;20085;-78
2023/08/23 00:29:57;;;;;;;5.03;3.45;;;24.70;99.90;;;;;;4992118;28;20085;-79
2023/08/23 00:32:24;;;;;;;6.10;3.97;;;24.70;99.90;;;;;;4981176;28;20046;-78
2023/08/23 00:34:51;;;;;;;6.35;3.70;;;24.70;99.90;;;;;;4989527;28;20082;-78
2023/08/23 00:37:17;;;;;;;9.63;3.92;;;24.60;99.90;;;;;;4990521;28;20500;-78
2023/08/23 00:39:44;;;;;;;9.00;4.05;;;24.60;99.90;;;;;;4992181;28;20046;-78
2023/08/23 00:42:11;;;;;;;7.55;3.80;;;24.60;99.90;;;;;;4987899;28;20046;-78
2023/08/23 00:44:37;;;;;;;5.07;3.72;;;24.50;99.90;;;;;;4989746;28;20093;-78
2023/08/23 00:47:04;;;;;;;8.27;3.60;;;24.60;99.90;;;;;;4983130;28;20046;-78
2023/08/23 00:49:34;;;;;;;7.25;3.50;;;24.60;99.90;;;;;;4988550;28;20046;-78
2023/08/23 00:52:04;;;;;;;8.10;3.75;;;24.60;99.90;;;;;;4993922;28;20553;-78
2023/08/23 00:54:31;;;;;;;5.32;3.92;;;24.60;99.90;;;;;;4991180;28;20505;-78
2023/08/23 00:57:01;;;;;;;8.70;4.07;;;24.60;99.90;;;;;;4987427;28;20126;-79
2023/08/23 00:59:30;;;;;;;;;;;24.60;99.90;;;;;;4989671;28;20126;-77
2023/08/23 01:01:56;;;;;;;5.80;3.80;;;24.60;99.90;;;;;;4996516;28;19922;-78
2023/08/23 01:04:23;;;;;;;6.30;3.58;;;24.60;99.90;;;;;;4987690;28;20042;-77
2023/08/23 01:07:17;;;;;;;6.70;4.18;;;24.50;99.90;;;;;;4992333;28;20144;-78
2023/08/23 01:10:12;;;;;;;7.90;3.70;;;24.60;99.90;;;;;;4989734;28;20061;-78
2023/08/23 01:12:50;;;;;;;8.65;4.10;;;24.50;99.90;;;;;;4982582;28;20047;-78
2023/08/23 01:15:17;;;;;;;5.68;3.33;;;24.50;99.90;;;;;;4985588;28;20061;-77
2023/08/23 01:17:47;;;;;;;5.03;3.90;;;24.50;99.90;;;;;;4978997;28;20481;-78
2023/08/23 01:20:16;;;;;;;7.57;4.18;;;24.50;99.90;;;;;;4989915;28;20038;-78
2023/08/23 01:22:48;;;;;;;8.48;3.38;;;24.50;99.90;;;;;;4990375;28;20058;-78
2023/08/23 01:25:15;;;;;;;5.93;4.00;;;24.50;99.90;;;;;;4985640;28;20042;-78
2023/08/23 01:27:42;;;;;;;8.48;3.63;;;24.50;99.90;;;;;;4982965;28;20054;-78
2023/08/23 01:30:24;;;;;;;4.25;3.33;;;24.50;99.90;;;;;;4984948;28;20050;-78
2023/08/23 01:33:05;;;;;;;4.82;3.85;;;24.40;99.90;;;;;;4985092;28;20057;-77
2023/08/23 01:36:10;;;;;;;7.30;4.80;;;24.40;99.90;;;;;;4990784;28;20043;-78
2023/08/23 01:38:39;;;;;;;6.28;3.80;;;24.40;99.90;;;;;;4991188;28;20046;-79
2023/08/23 01:41:06;;;;;;;6.03;3.65;;;24.40;99.90;;;;;;4985661;28;20047;-78
2023/08/23 01:43:33;;;;;;;7.75;3.72;;;24.30;99.90;;;;;;4988686;28;20089;-78
2023/08/23 01:46:00;;;;;;;9.05;5.03;;;24.30;99.90;;;;;;4983310;28;20054;-79
2023/08/23 01:48:26;;;;;;;14.02;4.18;;;24.20;99.90;;;;;;4989271;28;20073;-78
2023/08/23 01:50:53;;;;;;;5.05;4.07;;;24.20;99.90;;;;;;4990294;28;20054;-78
2023/08/23 01:53:20;;;;;;;8.52;4.10;;;24.20;99.90;;;;;;4990822;28;20060;-78
2023/08/23 01:55:47;;;;;;;9.25;3.88;;;24.10;99.90;;;;;;4982474;28;20050;-78
2023/08/23 01:58:15;;;;;;;7.13;3.70;;;24.10;99.90;;;;;;4986923;28;20039;-78
2023/08/23 02:00:47;;;;;;;5.97;3.65;;;24.00;99.90;;;;;;4996858;28;20049;-77
2023/08/23 02:03:14;;;;;;;12.00;4.03;;;24.00;99.90;;;;;;4995448;28;20046;-78
2023/08/23 02:05:40;;;;;;;7.00;4.20;;;24.10;99.90;;;;;;4987689;28;20038;-78
2023/08/23 02:08:07;;;;;;;5.82;3.78;;;24.00;99.90;;;;;;4990869;28;20105;-78
2023/08/23 02:10:34;;;;;;;7.05;4.07;;;24.00;99.90;;;;;;4984508;28;20046;-78
2023/08/23 02:13:04;;;;;;;7.75;4.00;;;24.10;99.90;;;;;;4983971;28;20058;-78
2023/08/23 02:15:31;;;;;;;4.68;3.85;;;24.10;99.90;;;;;;4980474;28;20516;-78
2023/08/23 02:17:58;;;;;;;6.32;3.80;;;24.00;99.90;;;;;;4991655;28;20057;-79
2023/08/23 02:20:25;;;;;;;4.82;3.78;;;24.00;99.90;;;;;;4994490;28;20444;-78
2023/08/23 02:22:51;;;;;;;5.10;3.50;;;24.00;99.90;;;;;;4987814;28;20101;-78
2023/08/23 02:25:18;;;;;;;4.78;3.45;;;24.00;99.90;;;;;;4983338;28;20202;-78
2023/08/23 02:27:45;;;;;;;3.60;3.30;;;24.00;99.90;;;;;;4983282;28;20050;-78
2023/08/23 02:30:13;;;;;;;8.70;4.47;;;24.00;99.90;;;;;;4985789;28;20571;-77
2023/08/23 02:32:39;;;;;;;5.38;3.80;;;24.00;99.90;;;;;;4991643;28;20259;-79
2023/08/23 02:35:06;;;;;;;5.93;4.03;;;24.00;99.90;;;;;;4988039;28;20050;-78
2023/08/23 02:37:33;;;;;;;5.85;3.35;;;24.00;99.90;;;;;;4987762;28;20414;-78
2023/08/23 02:40:00;;;;;;;4.70;3.53;;;24.00;99.90;;;;;;4984486;28;20502;-78
2023/08/23 02:42:26;;;;;;;8.30;3.95;;;24.00;99.90;;;;;;4981047;28;20476;-78
2023/08/23 02:44:53;;;;;;;5.38;3.70;;;24.00;99.90;;;;;;4988666;28;20046;-77
2023/08/23 02:47:20;;;;;;;4.65;3.60;;;24.00;99.90;;;;;;4995426;28;20053;-78
2023/08/23 02:49:46;;;;;;;5.65;3.53;;;24.00;99.90;;;;;;4989186;28;20050;-78
2023/08/23 02:52:13;;;;;;;6.93;4.07;;;24.00;99.90;;;;;;4990712;28;20046;-78
2023/08/23 02:54:40;;;;;;;6.07;3.78;;;24.00;99.90;;;;;;4981276;28;20101;-79
2023/08/23 02:57:07;;;;;;;5.10;4.13;;;24.00;99.90;;;;;;4984163;28;20054;-78
2023/08/23 02:59:33;;;;;;;5.13;3.60;;;24.00;99.90;;;;;;4989881;28;20038;-78
2023/08/23 03:02:00;;;;;;;4.63;3.83;;;24.00;99.90;;;;;;4991078;28;20082;-78
2023/08/23 03:04:27;;;;;;;4.70;3.63;;;23.90;99.90;;;;;;4985483;28;20117;-78
2023/08/23 03:06:54;;;;;;;7.70;3.85;;;23.90;99.90;;;;;;4985499;28;20047;-79
2023/08/23 03:09:20;;;;;;;4.93;3.53;;;23.90;99.90;;;;;;4983803;28;20468;-78
2023/08/23 03:11:47;;;;;;;5.40;3.95;;;23.90;99.90;;;;;;4981626;28;20050;-78
2023/08/23 03:14:14;;;;;;;4.63;3.53;;;23.90;99.90;;;;;;4990319;28;20108;-78
2023/08/23 03:16:41;;;;;;;6.05;4.10;;;23.90;99.90;;;;;;4988943;28;20113;-78
2023/08/23 03:19:08;;;;;;;6.25;3.50;;;23.90;99.90;;;;;;4985912;28;20047;-78
2023/08/23 03:21:34;;;;;;;5.00;3.70;;;23.80;99.90;;;;;;4983334;28;20057;-79
2023/08/23 03:24:01;;;;;;;9.27;3.88;;;23.80;99.90;;;;;;4984158;28;20112;-78
2023/08/23 03:26:28;;;;;;;9.13;4.85;;;23.80;99.90;;;;;;4977193;28;20154;-78
2023/08/23 03:28:55;;;;;;;8.65;5.10;;;23.80;99.90;;;;;;4990236;28;20102;-78
2023/08/23 03:31:21;;;;;;;8.40;4.70;;;23.80;99.90;;;;;;4991665;28;20046;-78
2023/08/23 03:33:48;;;;;;;5.68;4.63;;;23.80;99.90;;;;;;4982668;28;20057;-78
2023/08/23 03:36:15;;;;;;;14.32;4.25;;;23.80;99.90;;;;;;4985195;28;20077;-78
2023/08/23 03:38:42;;;;;;;7.55;3.92;;;23.70;99.90;;;;;;4982690;28;20668;-78
2023/08/23 03:41:13;;;;;;;5.35;3.42;;;23.60;99.90;;;;;;4979242;28;20051;-78
2023/08/23 03:43:39;;;;;;;9.73;4.80;;;23.50;99.90;;;;;;4988269;28;20038;-78
2023/08/23 03:46:06;;;;;;;8.07;4.13;;;23.40;99.90;;;;;;4989008;28;20046;-78
2023/08/23 03:48:33;;;;;;;11.30;5.15;;;23.40;99.90;;;;;;4987065;28;20070;-78
2023/08/23 03:51:00;;;;;;;9.70;4.50;;;23.40;99.90;;;;;;4980969;28;20059;-79
2023/08/23 03:53:26;;;;;;;5.78;4.25;;;23.40;99.90;;;;;;4983317;28;20492;-78
2023/08/23 03:55:56;;;;;;;5.15;4.00;;;23.40;99.90;;;;;;4975169;28;20490;-79
2023/08/23 03:58:23;;;;;;;7.80;4.07;;;23.40;99.90;;;;;;4991535;28;20100;-78
2023/08/23 04:00:53;;;;;;;8.77;4.57;;;23.40;99.90;;;;;;4985041;28;20516;-78
2023/08/23 04:03:20;;;;;;;6.07;3.83;;;23.30;99.90;;;;;;4985978;28;20397;-78
2023/08/23 04:05:47;;;;;;;6.63;4.22;;;23.30;99.90;;;;;;4980162;28;20502;-78
2023/08/23 04:08:16;;;;;;;7.63;4.20;;;23.30;99.90;;;;;;4982836;28;20109;-78
2023/08/23 04:10:50;;;;;;;7.90;4.32;;;23.30;99.90;;;;;;4981218;28;20055;-78
2023/08/23 04:13:17;;;;;;;7.65;4.25;;;23.30;99.90;;;;;;4992294;28;20074;-78
2023/08/23 04:15:44;;;;;;;5.35;4.40;;;23.30;99.90;;;;;;4984725;28;20575;-78
2023/08/23 04:18:11;;;;;;;6.68;4.07;;;23.20;99.90;;;;;;4985724;28;20055;-78
2023/08/23 04:20:38;;;;;;;7.20;4.32;;;23.20;99.90;;;;;;4980964;28;20070;-78
2023/08/23 04:23:05;;;;;;;9.02;5.22;;;23.20;99.90;;;;;;5000199;28;20418;-77
2023/08/23 04:25:32;;;;;;;6.82;5.03;;;23.20;99.90;;;;;;4987625;28;20042;-78
2023/08/23 04:27:59;;;;;;;7.65;5.93;;;23.20;99.90;;;;;;4985837;28;20055;-78
2023/08/23 04:30:26;;;;;;;10.07;5.25;;;23.20;99.90;;;;;;4988598;28;20066;-78
2023/08/23 04:32:53;;;;;;;9.95;6.30;;;23.20;99.90;;;;;;4982903;28;20051;-78
2023/08/23 04:35:19;;;;;;;7.10;5.15;;;23.20;99.90;;;;;;4981068;28;20527;-78
2023/08/23 04:37:46;;;;;;;5.57;4.53;;;23.20;99.90;;;;;;4986999;28;20073;-79
2023/08/23 04:40:13;;;;;;;5.88;4.45;;;23.20;99.90;;;;;;4993397;28;20129;-78
2023/08/23 04:42:40;;;;;;;8.32;4.82;;;23.20;99.90;;;;;;4986160;28;20102;-78
2023/08/23 04:45:07;;;;;;;7.10;4.32;;;23.10;99.90;;;;;;4986869;28;20047;-78
2023/08/23 04:47:34;;;;;;;7.70;4.63;;;23.10;99.90;;;;;;4991518;28;20054;-79
2023/08/23 04:50:01;;;;;;;7.80;4.80;;;23.10;99.90;;;;;;4977557;28;20057;-79
2023/08/23 04:52:28;;;;;;;7.10;4.72;;;23.10;99.90;;;;;;4984638;28;20043;-79
2023/08/23 04:54:55;;;;;;;9.68;4.43;;;23.10;99.90;;;;;;4988887;28;20050;-78
2023/08/23 04:57:22;;;;;;;7.65;4.57;;;23.10;99.90;;;;;;4989174;28;20077;-78
2023/08/23 04:59:48;;;;;;;9.20;4.38;;;23.10;99.90;;;;;;4982359;28;20107;-78
2023/08/23 05:02:15;;;;;;;6.88;4.70;;;23.10;99.90;;;;;;4986331;28;20051;-78
2023/08/23 05:04:42;;;;;;;7.35;4.47;;;23.10;99.90;;;;;;4979610;28;20047;-79
2023/08/23 05:07:08;;;;;;;6.40;3.95;;;23.10;99.90;;;;;;4988897;28;20047;-79
2023/08/23 05:09:35;;;;;;;12.55;5.45;;;23.20;99.90;;;;;;4992214;28;20046;-78
2023/08/23 05:12:02;;;;;;;7.32;4.30;;;23.20;99.90;;;;;;4990146;28;20046;-79
2023/08/23 05:14:29;;;;;;;7.32;4.38;;;23.20;99.90;;;;;;4986090;28;20054;-78
2023/08/23 05:16:56;;;;;;;7.72;4.40;;;23.20;99.90;;;;;;4987012;28;20055;-78
2023/08/23 05:19:22;;;;;;;7.40;3.72;;;23.20;99.90;;;;;;4980332;28;20100;-78
2023/08/23 05:21:49;;;;;;;10.60;4.30;;;23.20;99.90;;;;;;4988967;28;20097;-79
2023/08/23 05:24:16;;;;;;;5.75;3.55;;;23.30;99.90;;;;;;4992444;28;20114;-78
2023/08/23 05:26:43;;;;;;;5.93;3.75;;;23.30;99.90;;;;;;4990315;28;20051;-78
2023/08/23 05:29:09;;;;;;;7.85;4.15;;;23.30;99.90;;;;;;4985248;28;20047;-78
2023/08/23 05:31:36;;;;;;;4.88;3.92;;;23.30;99.90;;;;;;4987195;28;20497;-78
2023/08/23 05:34:03;;;;;;;7.93;4.15;;;23.40;99.90;;;;;;4980061;28;20145;-78
2023/08/23 05:36:30;;;;;;;14.43;4.80;;;23.40;99.90;;;;;;4995298;28;20460;-78
2023/08/23 05:38:56;;;;;;;6.38;4.57;;;23.40;99.90;;;;;;4989923;28;20089;-79
2023/08/23 05:41:23;;;;;;;6.70;4.82;;;23.40;99.90;;;;;;4991882;28;20070;-79
2023/08/23 05:43:50;;;;;;;6.85;4.35;;;23.40;99.90;;;;;;4983207;28;20537;-78
2023/08/23 05:46:17;;;;;;;9.52;4.82;;;23.50;99.90;;;;;;4988844;28;20110;-78
2023/08/23 05:48:44;;;;;;;7.22;4.32;;;23.40;99.90;;;;;;4979047;28;20526;-78
2023/08/23 05:51:11;;;;;;;6.30;4.47;;;23.40;99.90;;;;;;4991562;28;20091;-79
2023/08/23 05:53:38;;;;;;;8.13;3.55;;;23.50;99.90;;;;;;4990191;28;20104;-79
2023/08/23 05:56:05;;;;;;;7.82;4.00;;;23.50;99.90;;;;;;4989050;28;20592;-78
2023/08/23 05:58:32;;;;;;;10.35;4.57;;;23.50;99.90;;;;;;4984358;28;20057;-78
2023/08/23 06:00:59;;;;;;;6.85;4.38;;;23.50;99.90;;;;;;4987734;28;20474;-78
2023/08/23 06:03:26;;;;;;;10.00;4.47;;;23.50;99.90;;;;;;4980786;28;20133;-77
2023/08/23 06:05:55;;;;;;;11.02;4.40;;;23.50;99.90;;;;;;4985970;28;20141;-78
2023/08/23 06:08:22;;;;;;;5.97;4.20;;;23.60;99.90;;;;;;4988897;28;20069;-78
2023/08/23 06:10:49;;;;;;;4.45;3.70;;;23.50;99.90;;;;;;4985495;28;20106;-77
2023/08/23 06:13:16;;;;;;;8.18;4.22;;;23.50;99.90;;;;;;4985837;28;20051;-79
2023/08/23 06:15:43;;;;;;;9.30;4.50;;;23.50;99.90;;;;;;4982786;28;20840;-78
2023/08/23 06:18:09;;;;;;;7.30;4.15;;;23.50;99.90;;;;;;4981223;28;20098;-78
2023/08/23 06:20:36;;;;;;;6.45;4.47;;;23.50;99.90;;;;;;4994519;28;20133;-78
2023/08/23 06:23:03;;;;;;;7.45;4.32;;;23.50;99.90;;;;;;4987178;28;20488;-79
2023/08/23 06:25:30;;;;;;;8.60;3.88;;;23.50;99.90;;;;;;4989969;28;20038;-79
2023/08/23 06:27:56;;;;;;;6.55;4.60;;;23.50;99.90;;;;;;4980842;28;20078;-79
2023/08/23 06:30:23;;;;;;;8.75;4.47;;;23.50;99.90;;;;;;4985817;28;20082;-79
2023/08/23 06:32:50;;;;;;;9.25;4.28;;;23.60;99.90;;;;;;4984681;28;20050;-78
2023/08/23 06:35:18;;;;;;;6.82;4.32;;;23.60;99.90;;;;;;4992718;28;20543;-78
2023/08/23 06:37:45;;;;;;;9.10;4.60;;;23.50;99.90;;;;;;4986739;28;20050;-78
2023/08/23 06:40:13;;;;;;;7.88;4.45;;;23.60;99.90;;;;;;4987341;28;20473;-78
2023/08/23 06:42:40;;;;;;;16.10;5.22;;;23.60;99.90;;;;;;4981406;28;20074;-77
2023/08/23 06:45:10;;;;;;;5.80;3.72;;;23.60;99.90;;;;;;4985335;28;20049;-79
2023/08/23 06:47:37;;;;;;;9.32;4.22;;;23.70;99.90;;;;;;5000438;28;20048;-78
2023/08/23 06:50:06;;;;;;;6.65;4.30;;;23.70;99.90;;;;;;4990359;28;20046;-78
2023/08/23 06:52:40;;;;;;;8.35;4.90;;;23.70;99.90;;;;;;4984952;28;20046;-78
2023/08/23 06:55:07;;;;;;;8.25;4.00;;;23.80;99.90;;;;;;4987565;28;20092;-78
2023/08/23 06:57:34;;;;;;;7.65;4.20;;;23.80;99.90;;;;;;4984887;28;20073;-78
2023/08/23 07:00:01;;;;;;;9.93;4.85;;;23.80;99.90;;;;;;4985312;28;20576;-79
2023/08/23 07:02:28;;;;;;;12.18;4.50;;;23.80;99.90;;;;;;4988372;28;20051;-78
2023/08/23 07:04:54;;;;;;;6.68;3.90;;;23.90;99.90;;;;;;4982554;28;20046;-77
2023/08/23 07:07:22;;;;;;;7.65;3.78;;;23.90;99.90;;;;;;4984732;28;20498;-77
2023/08/23 07:09:49;;;;;;;5.85;4.00;;;23.90;99.90;;;;;;4985193;28;20046;-78
2023/08/23 07:12:17;;;;;;;8.07;3.45;;;24.00;99.90;;;;;;4985425;28;20046;-78
2023/08/23 07:14:46;;;;;;;6.05;4.03;;;24.00;99.90;;;;;;4979489;28;20046;-78
2023/08/23 07:17:13;;;;;;;10.35;4.03;;;24.10;99.90;;;;;;4986215;28;20058;-78
2023/08/23 07:19:40;;;;;;;9.70;4.15;;;24.10;99.90;;;;;;4982952;28;20073;-78
2023/08/23 07:22:07;;;;;;;7.90;3.95;;;24.10;99.90;;;;;;4978870;28;20082;-78
2023/08/23 07:24:34;;;;;;;10.27;5.25;;;24.10;99.90;;;;;;4984149;28;20584;-78
2023/08/23 07:27:00;;;;;;;7.45;4.38;;;24.20;99.90;;;;;;4980264;28;20093;-78
2023/08/23 07:29:27;;;;;;;9.30;4.28;;;24.10;99.90;;;;;;4983459;28;20051;-78
2023/08/23 07:31:54;;;;;;;10.30;5.15;;;24.10;99.90;;;;;;4985988;28;20053;-78
2023/08/23 07:34:21;;;;;;;9.00;4.82;;;24.10;99.90;;;;;;4984428;28;20047;-79
2023/08/23 07:36:48;;;;;;;8.32;4.32;;;24.10;99.90;;;;;;4981041;28;20051;-78
2023/08/23 07:39:14;;;;;;;6.05;4.30;;;24.10;99.90;;;;;;4984443;28;20514;-77
2023/08/23 07:41:41;;;;;;;7.53;4.50;;;24.20;99.90;;;;;;4979514;28;20105;-79
2023/08/23 07:44:08;;;;;;;7.28;5.07;;;24.20;99.90;;;;;;4980853;28;20505;-78
2023/08/23 07:46:35;;;;;;;12.15;4.00;;;24.30;99.90;;;;;;4986540;28;20509;-78
2023/08/23 07:49:02;;;;;;;8.40;4.47;;;24.20;99.90;;;;;;4986474;28;20044;-78
2023/08/23 07:51:29;;;;;;;8.00;4.80;;;24.30;99.90;;;;;;4982443;28;20054;-78
2023/08/23 07:53:55;;;;;;;10.15;4.07;;;24.30;99.90;;;;;;4981527;28;20475;-79
2023/08/23 07:56:22;;;;;;;11.95;4.82;;;24.40;99.90;;;;;;4982150;28;20109;-79
2023/08/23 07:58:49;;;;;;;8.52;4.80;;;24.40;99.90;;;;;;4981582;28;20050;-79
2023/08/23 08:01:16;;;;;;;9.65;4.55;;;24.40;99.90;;;;;;4983901;28;20092;-77
2023/08/23 08:03:43;;;;;;;7.60;4.97;;;24.40;99.90;;;;;;4982970;28;20117;-78
2023/08/23 08:06:10;;;;;;;11.27;5.00;;;24.40;99.90;;;;;;4979294;28;20055;-78
2023/08/23 08:08:39;;;;;;;8.85;5.07;;;24.40;99.90;;;;;;4985043;28;20100;-78
2023/08/23 08:11:06;;;;;;;6.80;4.45;;;24.30;99.90;;;;;;4990498;28;20572;-77
2023/08/23 08:13:32;;;;;;;8.07;5.28;;;24.40;99.90;;;;;;4984057;28;20159;-78
2023/08/23 08:16:06;;;;;;;10.93;5.38;;;24.40;99.90;;;;;;4983962;28;20399;-78
2023/08/23 08:18:33;;;;;;;5.22;4.70;;;24.50;99.90;;;;;;4985034;28;20464;-79
2023/08/23 08:20:59;;;;;;;8.93;5.45;;;24.50;99.90;;;;;;4977302;28;20047;-77
2023/08/23 08:23:26;;;;;;;7.15;5.03;;;24.50;99.90;;;;;;4982360;28;20052;-79
2023/08/23 08:25:53;;;;;;;9.07;4.88;;;24.60;99.90;;;;;;4983984;28;20050;-78
2023/08/23 08:28:20;;;;;;;7.13;5.13;;;24.60;99.90;;;;;;4981951;28;20059;-79
2023/08/23 08:30:47;;;;;;;8.82;5.80;;;24.60;99.90;;;;;;4988095;28;20093;-78
2023/08/23 08:33:15;;;;;;;11.65;5.90;;;24.70;99.90;;;;;;4983581;28;20051;-78
2023/08/23 08:35:43;;;;;;;9.13;6.38;;;24.70;99.90;;;;;;4981218;28;20109;-78
2023/08/23 08:38:10;;;;;;;12.25;5.00;;;24.70;99.90;;;;;;4984014;28;20277;-78
2023/08/23 08:40:37;;;;;;;9.02;4.95;;;24.70;99.90;;;;;;4987710;28;20422;-78
2023/08/23 08:43:08;;;;;;;5.88;5.05;;;24.80;99.90;;;;;;4984231;28;20054;-78
2023/08/23 08:45:37;;;;;;;10.15;5.85;;;24.80;99.90;;;;;;4987885;28;20062;-78
2023/08/23 08:48:05;;;;;;;7.60;5.07;;;24.90;99.90;;;;;;4990269;28;20067;-78
2023/08/23 08:50:34;;;;;;;8.43;4.95;;;24.90;99.90;;;;;;4983597;28;20081;-78
2023/08/23 08:53:06;;;;;;;9.65;5.13;;;25.00;99.90;;;;;;4982821;28;20818;-78
2023/08/23 08:55:34;;;;;;;6.80;4.68;;;25.00;99.90;;;;;;4984748;28;20050;-79
2023/08/23 08:58:02;;;;;;;12.60;5.03;;;25.10;99.90;;;;;;4985833;28;20042;-78
2023/08/23 09:00:31;;;;;;;8.15;5.38;;;25.10;99.90;;;;;;4991036;28;20490;-78
2023/08/23 09:02:59;;;;;;;9.25;4.88;;;25.20;99.90;;;;;;4984111;28;20046;-77
2023/08/23 09:05:27;;;;;;;12.48;4.95;;;25.20;99.90;;;;;;4986709;28;20046;-78
2023/08/23 09:07:55;;;;;;;13.05;5.32;;;25.20;99.90;;;;;;4985598;28;20559;-78
2023/08/23 09:10:22;;;;;;;15.02;5.43;;;25.30;99.90;;;;;;4989790;28;20059;-79
2023/08/23 09:12:49;;;;;;;6.82;4.90;;;25.40;99.90;;;;;;4990308;28;20451;-79
2023/08/23 09:15:23;;;;;;;11.20;4.97;;;25.40;99.90;;;;;;4985324;28;20046;-78
2023/08/23 09:17:54;;;;;;;8.63;5.00;;;25.40;99.90;;;;;;4987485;28;20050;-78
2023/08/23 09:20:22;;;;;;;6.55;5.10;;;25.50;99.90;;;;;;4983627;28;20512;-79
2023/08/23 09:22:53;;;;;;;12.20;5.18;;;25.50;99.90;;;;;;4986483;28;20049;-77
2023/08/23 09:25:20;;;;;;;12.75;5.55;;;25.60;99.90;;;;;;4992569;28;20084;-79
2023/08/23 09:27:47;;;;;;;9.02;5.07;;;25.60;99.90;;;;;;4994050;28;20562;-78
2023/08/23 09:30:14;;;;;;;10.85;5.03;;;25.70;99.90;;;;;;4986329;28;20105;-79
2023/08/23 09:32:42;;;;;;;13.48;5.13;;;25.70;99.90;;;;;;4990016;28;20153;-78
2023/08/23 09:35:16;;;;;;;7.45;4.78;;;25.70;99.90;;;;;;4982753;28;20050;-78
2023/08/23 09:37:45;;;;;;;6.63;5.18;;;25.80;99.90;;;;;;4989663;28;20053;-78
2023/08/23 09:40:18;;;;;;;;;;;25.90;99.90;;;;;;4992342;28;20458;-78
2023/08/23 09:42:46;;;;;;;11.18;5.20;;;25.90;99.90;;;;;;4994062;28;19936;-79
2023/08/23 09:45:21;;;;;;;9.32;4.70;;;25.90;99.90;;;;;;4983409;28;20490;-78
2023/08/23 09:47:54;;;;;;;9.77;4.68;;;26.00;99.90;;;;;;4990051;28;20041;-78
2023/08/23 09:50:22;;;;;;;6.40;4.97;;;26.00;99.90;;;;;;4981763;28;20047;-79
2023/08/23 09:52:57;;;;;;;8.23;4.40;;;26.10;99.90;;;;;;4989171;28;20046;-78
2023/08/23 09:55:25;;;;;;;8.70;4.60;;;26.10;99.90;;;;;;4990838;28;20092;-79
2023/08/23 09:57:55;;;;;;;11.57;4.82;;;26.20;99.90;;;;;;4989194;28;20501;-79
2023/08/23 10:00:22;;;;;;;9.65;4.05;;;26.20;99.90;;;;;;4994822;28;20057;-79
2023/08/23 10:02:51;;;;;;;8.45;4.00;;;26.30;99.90;;;;;;4991686;28;20042;-77
2023/08/23 10:05:19;;;;;;;8.23;4.47;;;26.30;99.90;;;;;;4994996;28;20097;-77
2023/08/23 10:07:46;;;;;;;12.77;5.25;;;26.40;99.90;;;;;;4982624;28;20501;-78
2023/08/23 10:10:14;;;;;;;7.68;4.35;;;26.50;99.90;;;;;;4987306;28;20505;-79
2023/08/23 10:12:44;;;;;;;5.45;4.00;;;26.60;99.90;;;;;;4987944;28;20147;-78
2023/08/23 10:15:13;;;;;;;;;;;26.50;99.90;;;;;;4987959;28;20112;-78
2023/08/23 10:17:42;;;;;;;10.32;3.90;;;26.60;99.90;;;;;;4986459;28;19922;-78
2023/08/23 10:20:11;;;;;;;6.35;4.07;;;26.60;99.90;;;;;;4979375;28;20744;-78
2023/08/23 10:22:40;;;;;;;9.63;3.55;;;26.70;99.90;;;;;;4988281;28;20457;-77
2023/08/23 10:25:17;;;;;;;4.38;3.58;;;26.80;99.90;;;;;;4984670;28;20104;-78
2023/08/23 10:27:46;;;;;;;8.05;3.40;;;26.80;99.90;;;;;;4985745;28;20046;-78
2023/08/23 10:30:27;;;;;;;6.78;4.15;;;26.90;99.90;;;;;;4980907;28;20429;-78
2023/08/23 10:32:55;;;;;;;;;;;27.00;99.90;;;;;;4983666;28;20505;-79
2023/08/23 10:35:48;;;;;;;8.18;4.00;;;27.00;99.90;;;;;;4984473;28;19925;-78
2023/08/23 10:38:15;;;;;;;5.35;3.58;;;27.10;99.90;;;;;;4983013;28;20070;-78
2023/08/23 10:40:45;;;;;;;8.20;3.58;;;27.20;99.90;;;;;;4989865;28;20050;-79
2023/08/23 10:43:17;;;;;;;7.45;4.28;;;27.30;99.90;;;;;;4982946;28;20049;-79
2023/08/23 10:45:51;;;;;;;5.22;3.33;;;27.30;99.90;;;;;;4982621;28;20611;-78
2023/08/23 10:48:23;;;;;;;6.88;3.22;;;27.40;99.90;;;;;;4986039;28;20089;-78
2023/08/23 10:50:51;;;;;;;6.78;3.00;;;27.40;99.90;;;;;;4990915;28;20056;-79
2023/08/23 10:53:18;;;;;;;9.70;4.13;;;27.50;99.90;;;;;;4982359;28;20051;-78
2023/08/23 10:55:46;;;;;;;6.45;3.10;;;27.60;99.90;;;;;;4984801;28;20134;-79
2023/08/23 10:58:13;;;;;;;8.55;3.53;;;27.60;99.90;;;;;;4983157;28;20042;-78
2023/08/23 11:00:50;;;;;;;6.57;3.42;;;27.70;99.90;;;;;;4978476;28;20038;-78
2023/08/23 11:03:19;;;;;;;5.35;2.95;;;27.80;99.90;;;;;;4999510;28;20039;-78
2023/08/23 11:05:46;;;;;;;8.55;3.45;;;27.80;99.90;;;;;;4987211;28;20102;-78
2023/08/23 11:08:13;;;;;;;4.90;2.85;;;27.80;99.90;;;;;;4981372;28;20498;-79
2023/08/23 11:10:42;;;;;;;5.80;3.05;;;27.90;99.90;;;;;;4983964;28;20057;-79
2023/08/23 11:13:08;;;;;;;7.45;3.47;;;27.90;99.90;;;;;;4981424;28;20109;-78
2023/08/23 11:15:36;;;;;;;6.57;3.45;;;28.00;99.90;;;;;;4976872;28;20152;-79
2023/08/23 11:18:04;;;;;;;5.43;3.30;;;28.00;99.90;;;;;;4986705;28;20072;-79
2023/08/23 11:20:32;;;;;;;8.63;3.72;;;28.00;99.90;;;;;;4989241;28;20130;-79
2023/08/23 11:22:58;;;;;;;4.80;2.80;;;28.00;99.90;;;;;;4989141;28;20468;-77
2023/08/23 11:25:25;;;;;;;7.20;3.00;;;28.00;99.90;;;;;;4982040;28;20182;-79
2023/08/23 11:27:52;;;;;;;7.35;3.33;;;28.10;99.90;;;;;;4986615;28;20046;-78
2023/08/23 11:30:22;;;;;;;5.78;3.17;;;28.10;99.90;;;;;;4976884;28;20046;-78
2023/08/23 11:32:49;;;;;;;;;;;28.20;99.90;;;;;;4992164;28;20564;-79
2023/08/23 11:35:21;;;;;;;8.00;3.00;;;28.20;99.90;;;;;;4989042;28;20020;-79
2023/08/23 11:37:49;;;;;;;5.32;3.20;;;28.30;99.90;;;;;;4989250;28;20074;-79
2023/08/23 11:40:16;;;;;;;7.05;3.30;;;28.30;99.90;;;;;;4982125;28;20047;-77
2023/08/23 11:42:45;;;;;;;8.57;2.92;;;28.40;99.90;;;;;;4986265;28;20051;-78
2023/08/23 11:45:12;;;;;;;9.10;3.63;;;28.40;99.90;;;;;;4979709;28;20050;-79
2023/08/23 11:47:39;;;;;;;7.72;3.08;;;28.50;99.90;;;;;;4990340;28;20046;-79
2023/08/23 11:50:09;;;;;;;5.75;2.72;;;28.50;99.90;;;;;;4990943;28;20046;-79
2023/08/23 11:52:36;;;;;;;;;;;28.50;99.90;;;;;;4985258;28;20113;-79
2023/08/23 11:55:04;;;;;;;6.18;2.83;;;28.50;99.90;;;;;;4984879;28;20359;-78
2023/08/23 11:57:32;;;;;;;5.43;2.80;;;28.60;99.90;;;;;;4984339;28;20048;-79
2023/08/23 11:59:59;;;;;;;6.13;3.13;;;28.60;99.90;;;;;;4978117;28;20453;-79
2023/08/23 12:02:26;;;;;;;7.03;2.70;;;28.70;99.90;;;;;;4990532;28;20125;-78
2023/08/23 12:04:53;;;;;;;4.55;2.60;;;28.80;99.90;;;;;;4986570;28;20051;-79
2023/08/23 12:07:20;;;;;;;8.10;3.17;;;28.80;99.90;;;;;;4986415;28;20046;-79
2023/08/23 12:09:47;;;;;;;5.35;2.90;;;28.90;99.90;;;;;;4980085;28;20053;-79
2023/08/23 12:12:14;;;;;;;6.53;2.90;;;29.00;99.90;;;;;;4987362;28;20052;-79
2023/08/23 12:14:41;;;;;;;4.78;2.88;;;29.00;99.90;;;;;;4986882;28;20058;-78
2023/08/23 12:17:08;;;;;;;6.53;3.47;;;29.00;99.90;;;;;;4990828;28;20399;-77
2023/08/23 12:19:36;;;;;;;5.43;3.05;;;29.10;99.90;;;;;;4989109;28;20051;-78
2023/08/23 12:22:06;;;;;;;5.18;2.97;;;29.10;99.90;;;;;;4990234;28;20089;-79
2023/08/23 12:24:33;;;;;;;5.13;2.80;;;29.20;99.90;;;;;;4983693;28;20049;-78
2023/08/23 12:27:00;;;;;;;4.28;2.67;;;29.20;99.90;;;;;;4988209;28;20468;-79
2023/08/23 12:29:27;;;;;;;5.43;2.92;;;29.20;99.90;;;;;;4983538;28;20065;-79
2023/08/23 12:31:55;;;;;;;5.50;2.67;;;29.20;99.90;;;;;;4990725;28;20602;-79
2023/08/23 12:34:24;;;;;;;4.28;2.38;;;29.20;99.90;;;;;;4987007;28;20077;-78
2023/08/23 12:36:51;;;;;;;4.05;2.97;;;29.30;99.90;;;;;;4987087;28;20473;-78
2023/08/23 12:39:18;;;;;;;9.68;3.13;;;29.30;99.90;;;;;;4982564;28;20046;-79
2023/08/23 12:41:46;;;;;;;6.22;3.20;;;29.30;99.90;;;;;;4990119;28;20449;-79
2023/08/23 12:44:13;;;;;;;7.55;3.08;;;29.30;99.90;;;;;;4992664;28;20092;-79
2023/08/23 12:46:40;;;;;;;7.22;3.88;;;29.30;99.90;;;;;;4988913;28;20399;-79
2023/08/23 12:49:12;;;;;;;5.13;2.90;;;29.30;99.90;;;;;;4987455;28;20042;-79
2023/08/23 12:51:40;;;;;;;5.78;3.22;;;29.30;99.90;;;;;;4986706;28;20050;-78